Time;durP1;ratioP1;P1;durP2;ratioP2;P2;SDS_P1;SDS_P2;PMS_P1;PMS_P2;Temp;Humidity;BMP_temperature;BMP_pressure;BME280_temperature;BME280_humidity;BME280_pressure;Samples;Min_cycle;Max_cycle;Signal;HPM_P1;HPM_P2
2023/12/07 00:00:19;;;;;;;1999.90;999.90;;;2.60;99.90;;;;;;5087413;28;20403;-80
2023/12/07 00:02:44;;;;;;;1999.90;999.90;;;2.60;99.90;;;;;;5108489;28;20047;-80
2023/12/07 00:05:10;;;;;;;1999.90;999.90;;;2.60;99.90;;;;;;5091594;28;20047;-80
2023/12/07 00:07:36;;;;;;;1999.90;999.90;;;2.60;99.90;;;;;;5092600;28;20043;-80
2023/12/07 00:10:01;;;;;;;1999.90;999.90;;;2.60;99.90;;;;;;5090888;28;20560;-80
2023/12/07 00:12:27;;;;;;;1999.90;999.90;;;2.60;99.90;;;;;;5086414;28;20492;-80
2023/12/07 00:14:52;;;;;;;1999.90;999.90;;;2.50;99.90;;;;;;5089590;28;20065;-80
2023/12/07 00:17:18;;;;;;;1999.90;999.90;;;2.60;99.90;;;;;;5092389;28;20066;-80
2023/12/07 00:19:44;;;;;;;1999.90;999.90;;;2.50;99.90;;;;;;5075898;28;20501;-80
2023/12/07 00:22:10;;;;;;;1999.90;999.90;;;2.50;99.90;;;;;;5071576;28;20044;-80
2023/12/07 00:24:35;;;;;;;1999.90;999.90;;;2.50;99.90;;;;;;5106313;28;20040;-80
2023/12/07 00:27:01;;;;;;;1999.90;999.90;;;2.50;99.90;;;;;;5089430;28;20035;-80
2023/12/07 00:29:26;;;;;;;1999.90;999.90;;;2.40;99.90;;;;;;5091989;28;20132;-80
2023/12/07 00:31:52;;;;;;;1999.90;999.90;;;2.50;99.90;;;;;;5082105;28;20038;-80
2023/12/07 00:34:18;;;;;;;1999.90;999.90;;;2.50;99.90;;;;;;5068913;28;20048;-80
2023/12/07 00:36:44;;;;;;;1999.90;999.90;;;2.50;99.90;;;;;;5086667;28;20043;-80
2023/12/07 00:39:10;;;;;;;1999.90;999.90;;;2.50;99.90;;;;;;5067515;28;20139;-80
2023/12/07 00:41:35;;;;;;;1999.90;999.90;;;2.50;99.90;;;;;;5068638;28;20502;-80
2023/12/07 00:44:01;;;;;;;1999.90;999.90;;;2.50;99.90;;;;;;5091799;28;20050;-80
2023/12/07 00:46:26;;;;;;;1999.90;999.90;;;2.50;99.90;;;;;;5069377;28;20032;-80
2023/12/07 00:48:52;;;;;;;1999.90;999.90;;;2.50;99.90;;;;;;5072178;28;20053;-81
2023/12/07 00:51:18;;;;;;;1999.90;999.90;;;2.50;99.90;;;;;;5091361;28;20051;-80
2023/12/07 00:53:43;;;;;;;1999.90;999.90;;;2.50;99.90;;;;;;5073825;28;20047;-80
2023/12/07 00:56:09;;;;;;;1999.90;999.90;;;2.50;99.90;;;;;;5091416;28;20046;-80
2023/12/07 00:58:36;;;;;;;1999.90;999.90;;;2.50;99.90;;;;;;5062004;28;20036;-80
2023/12/07 01:01:02;;;;;;;1999.90;999.90;;;2.50;99.90;;;;;;5089774;28;20039;-80
2023/12/07 01:03:29;;;;;;;1999.90;999.90;;;2.50;99.90;;;;;;5090229;28;20043;-80
2023/12/07 01:05:55;;;;;;;1999.90;999.90;;;2.40;99.90;;;;;;5100234;28;20035;-80
2023/12/07 01:08:21;;;;;;;1999.90;999.90;;;2.40;99.90;;;;;;5090819;28;20509;-80
2023/12/07 01:10:46;;;;;;;1999.90;999.90;;;2.40;99.90;;;;;;5091258;28;20051;-80
2023/12/07 01:13:12;;;;;;;1999.90;999.90;;;2.40;99.90;;;;;;5107693;28;20511;-80
2023/12/07 01:15:37;;;;;;;1999.90;999.90;;;2.40;99.90;;;;;;5108214;28;20043;-81
2023/12/07 01:18:03;;;;;;;1999.90;999.90;;;2.40;99.90;;;;;;5091214;28;20515;-80
2023/12/07 01:20:29;;;;;;;1999.90;999.90;;;2.40;99.90;;;;;;5072633;28;20036;-80
2023/12/07 01:22:54;;;;;;;1999.90;999.90;;;2.30;99.90;;;;;;5073550;28;20050;-80
2023/12/07 01:25:21;;;;;;;1999.90;999.90;;;2.40;99.90;;;;;;5068404;28;20502;-80
2023/12/07 01:27:47;;;;;;;1999.90;999.90;;;2.30;99.90;;;;;;5070858;28;20069;-80
2023/12/07 01:30:13;;;;;;;1999.90;999.90;;;2.30;99.90;;;;;;5073333;28;20054;-80
2023/12/07 01:32:39;;;;;;;1999.90;999.90;;;2.30;99.90;;;;;;5068655;28;20044;-80
2023/12/07 01:35:05;;;;;;;1999.90;999.90;;;2.30;99.90;;;;;;5104684;27;20484;-80
2023/12/07 01:37:31;;;;;;;1999.90;999.90;;;2.30;99.90;;;;;;5085243;28;20122;-80
2023/12/07 01:39:56;;;;;;;1999.90;999.90;;;2.30;99.90;;;;;;5108480;28;20209;-80
2023/12/07 01:42:22;;;;;;;1999.90;999.90;;;2.30;99.90;;;;;;5068513;28;20043;-80
2023/12/07 01:44:47;;;;;;;1999.90;999.90;;;2.30;99.90;;;;;;5090043;28;20046;-80
2023/12/07 01:47:14;;;;;;;1999.90;999.90;;;2.20;99.90;;;;;;5098171;28;20036;-80
2023/12/07 01:49:40;;;;;;;1999.90;999.90;;;2.30;99.90;;;;;;5107731;28;20074;-80
2023/12/07 01:52:07;;;;;;;1999.90;999.90;;;2.20;99.90;;;;;;5090385;28;20096;-80
2023/12/07 01:54:34;;;;;;;1999.90;999.90;;;2.20;99.90;;;;;;5088345;28;20032;-80
2023/12/07 01:56:59;;;;;;;1999.90;999.90;;;2.30;99.90;;;;;;5106394;28;20043;-80
2023/12/07 01:59:25;;;;;;;1999.90;999.90;;;2.20;99.90;;;;;;5073423;28;20167;-80
2023/12/07 02:01:51;;;;;;;1999.90;999.90;;;2.20;99.90;;;;;;5064533;28;20118;-80
2023/12/07 02:04:17;;;;;;;1999.90;999.90;;;2.20;99.90;;;;;;5070291;28;20040;-80
2023/12/07 02:06:43;;;;;;;1999.90;999.90;;;2.20;99.90;;;;;;5079482;28;20089;-80
2023/12/07 02:09:09;;;;;;;1999.90;999.90;;;2.20;99.90;;;;;;5078718;28;20062;-80
2023/12/07 02:11:34;;;;;;;1999.90;999.90;;;2.20;99.90;;;;;;5090470;28;20411;-80
2023/12/07 02:14:00;;;;;;;1999.90;999.90;;;2.20;99.90;;;;;;5088539;28;20034;-80
2023/12/07 02:16:51;;;;;;;1999.90;999.90;;;2.20;99.90;;;;;;5087793;28;20039;-81
2023/12/07 02:19:38;;;;;;;1999.90;999.90;;;2.20;99.90;;;;;;5081329;28;20192;-80
2023/12/07 02:22:12;;;;;;;1999.90;999.90;;;2.20;99.90;;;;;;5080256;28;20397;-80
2023/12/07 02:24:45;;;;;;;1999.90;999.90;;;2.10;99.90;;;;;;5106509;28;20075;-80
2023/12/07 02:27:11;;;;;;;1999.90;999.90;;;2.10;99.90;;;;;;5108586;28;20043;-80
2023/12/07 02:29:36;;;;;;;1999.90;999.90;;;2.00;99.90;;;;;;5072554;28;20036;-80
2023/12/07 02:32:02;;;;;;;1999.90;999.90;;;1.90;99.90;;;;;;5073536;28;20679;-80
2023/12/07 02:34:28;;;;;;;1999.90;999.90;;;1.90;99.90;;;;;;5108471;28;20067;-80
2023/12/07 02:36:57;;;;;;;1999.90;999.90;;;1.90;99.90;;;;;;5081379;28;20403;-80
2023/12/07 02:39:24;;;;;;;1999.90;999.90;;;2.00;99.90;;;;;;5084503;28;20052;-80
2023/12/07 02:41:53;;;;;;;1999.90;999.90;;;2.00;99.90;;;;;;5077835;28;20055;-80
2023/12/07 02:44:19;;;;;;;1999.90;999.90;;;2.00;99.90;;;;;;5072707;28;20275;-80
2023/12/07 02:46:45;;;;;;;1999.90;999.90;;;2.00;99.90;;;;;;5084056;28;20028;-80
2023/12/07 02:49:10;;;;;;;1999.90;999.90;;;2.00;99.90;;;;;;5107932;28;20043;-80
2023/12/07 02:51:36;;;;;;;1999.90;999.90;;;2.00;99.90;;;;;;5091239;28;20043;-80
2023/12/07 02:54:02;;;;;;;1999.90;999.90;;;2.10;99.90;;;;;;5074398;28;20035;-80
2023/12/07 02:56:27;;;;;;;1999.90;999.90;;;2.10;99.90;;;;;;5088622;28;20063;-80
2023/12/07 02:58:53;;;;;;;1999.90;999.90;;;2.10;99.90;;;;;;5077424;28;20077;-80
2023/12/07 03:01:18;;;;;;;1999.90;999.90;;;2.10;99.90;;;;;;5105647;28;20039;-80
2023/12/07 03:03:44;;;;;;;1999.90;999.90;;;2.10;99.90;;;;;;5092324;28;20047;-80
2023/12/07 03:06:10;;;;;;;1999.90;999.90;;;2.10;99.90;;;;;;5088906;28;20047;-80
2023/12/07 03:08:35;;;;;;;1999.90;999.90;;;2.10;99.90;;;;;;5079738;28;20039;-80
2023/12/07 03:11:01;;;;;;;1999.90;999.90;;;2.10;99.90;;;;;;5095484;28;20032;-80
2023/12/07 03:13:26;;;;;;;1999.90;999.90;;;2.10;99.90;;;;;;5087655;28;20047;-80
2023/12/07 03:15:52;;;;;;;1999.90;999.90;;;2.00;99.90;;;;;;5068830;28;20071;-80
2023/12/07 03:18:18;;;;;;;1999.90;999.90;;;2.00;99.90;;;;;;5101110;28;20066;-80
2023/12/07 03:20:43;;;;;;;1999.90;999.90;;;2.00;99.90;;;;;;5109502;28;20035;-80
2023/12/07 03:23:09;;;;;;;1999.90;999.90;;;2.00;99.90;;;;;;5075674;28;20051;-80
2023/12/07 03:25:35;;;;;;;1999.90;999.90;;;2.00;99.90;;;;;;5074399;28;20369;-80
2023/12/07 03:28:00;;;;;;;1999.90;999.90;;;1.90;99.90;;;;;;5092980;28;20027;-80
2023/12/07 03:30:26;;;;;;;1999.90;999.90;;;1.90;99.90;;;;;;5072133;28;20411;-80
2023/12/07 03:32:52;;;;;;;1999.90;999.90;;;1.80;99.90;;;;;;5085335;28;20174;-80
2023/12/07 03:35:17;;;;;;;1999.90;999.90;;;1.70;99.90;;;;;;5093864;28;20062;-81
2023/12/07 03:37:43;;;;;;;1999.90;999.90;;;1.60;99.90;;;;;;5074990;28;20194;-80
2023/12/07 03:40:09;;;;;;;1999.90;999.90;;;1.50;99.90;;;;;;5071298;28;20036;-80
2023/12/07 03:42:34;;;;;;;1999.90;999.90;;;1.50;99.90;;;;;;5087421;28;20054;-80
2023/12/07 03:45:00;;;;;;;1999.90;999.90;;;1.40;99.90;;;;;;5065166;28;20043;-80
2023/12/07 03:47:27;;;;;;;1999.90;999.90;;;1.30;99.90;;;;;;5074881;28;20042;-80
2023/12/07 03:49:52;;;;;;;1999.90;999.90;;;1.30;99.90;;;;;;5108662;28;20055;-80
2023/12/07 03:52:18;;;;;;;1999.90;999.90;;;1.20;99.90;;;;;;5072335;28;20043;-80
2023/12/07 03:54:43;;;;;;;1999.90;999.90;;;1.20;99.90;;;;;;5093311;28;20062;-80
2023/12/07 03:57:09;;;;;;;1999.90;999.90;;;1.10;99.90;;;;;;5091284;28;20149;-80
2023/12/07 03:59:36;;;;;;;1999.90;999.90;;;1.10;99.90;;;;;;5074270;28;20468;-80
2023/12/07 04:02:02;;;;;;;1999.90;999.90;;;1.00;99.90;;;;;;5074562;28;20036;-80
2023/12/07 04:04:27;;;;;;;1999.90;999.90;;;1.00;99.90;;;;;;5089656;28;20055;-80
2023/12/07 04:06:53;;;;;;;1999.90;999.90;;;1.00;99.90;;;;;;5073916;28;20535;-79
2023/12/07 04:09:19;;;;;;;1999.90;999.90;;;0.90;99.90;;;;;;5108713;28;20035;-80
2023/12/07 04:11:46;;;;;;;1999.90;999.90;;;0.90;99.90;;;;;;5075755;28;20036;-79
2023/12/07 04:14:12;;;;;;;1999.90;999.90;;;0.90;99.90;;;;;;5091646;28;20044;-79
2023/12/07 04:16:37;;;;;;;1999.90;999.90;;;0.80;99.90;;;;;;5063798;28;20063;-79
2023/12/07 04:19:03;;;;;;;1999.90;999.90;;;0.80;99.90;;;;;;5064740;28;20415;-79
2023/12/07 04:21:28;;;;;;;1999.90;999.90;;;0.80;99.90;;;;;;5090975;28;21103;-79
2023/12/07 04:23:54;;;;;;;1999.90;999.90;;;0.70;99.90;;;;;;5074231;28;20067;-79
2023/12/07 04:26:20;;;;;;;1999.90;999.90;;;0.70;99.90;;;;;;5074490;28;20082;-80
2023/12/07 04:28:45;;;;;;;1999.90;999.90;;;0.70;99.90;;;;;;5087013;28;20547;-79
2023/12/07 04:31:11;;;;;;;1999.90;999.90;;;0.60;99.90;;;;;;5110308;28;20416;-80
2023/12/07 04:33:36;;;;;;;1999.90;999.90;;;0.60;99.90;;;;;;5096884;27;20068;-79
2023/12/07 04:36:04;;;;;;;1999.90;999.90;;;0.60;99.90;;;;;;5090956;28;20040;-80
2023/12/07 04:38:30;;;;;;;1999.90;999.90;;;0.50;99.90;;;;;;5079404;28;20031;-80
2023/12/07 04:40:55;;;;;;;1999.90;999.90;;;0.50;99.90;;;;;;5079770;28;20617;-79
2023/12/07 04:43:21;;;;;;;1999.90;999.90;;;0.50;99.90;;;;;;5073785;28;20079;-79
2023/12/07 04:45:46;;;;;;;1999.90;999.90;;;0.50;99.90;;;;;;5089632;28;20038;-79
2023/12/07 04:48:12;;;;;;;1999.90;999.90;;;0.50;99.90;;;;;;5090310;28;20035;-79
2023/12/07 04:50:38;;;;;;;1999.90;999.90;;;0.50;99.90;;;;;;5088223;28;20464;-80
2023/12/07 04:53:03;;;;;;;1999.90;999.90;;;0.50;99.90;;;;;;5109569;28;20511;-79
2023/12/07 04:55:29;;;;;;;1999.90;999.90;;;0.60;99.90;;;;;;5074592;28;20476;-79
2023/12/07 04:57:54;;;;;;;1999.90;999.90;;;0.50;99.90;;;;;;5073965;28;20518;-80
2023/12/07 05:00:21;;;;;;;1999.90;999.90;;;0.50;99.90;;;;;;5088619;28;20036;-79
2023/12/07 05:02:47;;;;;;;1999.90;999.90;;;0.50;99.90;;;;;;5109776;28;20044;-79
2023/12/07 05:05:14;;;;;;;1999.90;999.90;;;0.60;99.90;;;;;;5083904;28;20051;-79
2023/12/07 05:07:39;;;;;;;1999.90;999.90;;;0.50;99.90;;;;;;5089775;28;20039;-79
2023/12/07 05:10:06;;;;;;;1999.90;999.90;;;0.60;99.90;;;;;;5086173;28;20518;-80
2023/12/07 05:12:32;;;;;;;1999.90;999.90;;;0.60;99.90;;;;;;5095208;28;20035;-79
2023/12/07 05:14:58;;;;;;;1999.90;999.90;;;0.60;99.90;;;;;;5068063;28;20044;-79
2023/12/07 05:17:23;;;;;;;1999.90;999.90;;;0.70;99.90;;;;;;5089991;28;20518;-79
2023/12/07 05:19:49;;;;;;;1999.90;999.90;;;0.70;99.90;;;;;;5061087;28;20044;-80
2023/12/07 05:22:15;;;;;;;1999.90;999.90;;;0.70;99.90;;;;;;5081176;28;20036;-79
2023/12/07 05:24:41;;;;;;;1999.90;999.90;;;0.70;99.90;;;;;;5084380;28;20047;-80
2023/12/07 05:27:06;;;;;;;1999.90;999.90;;;0.70;99.90;;;;;;5068723;28;20391;-80
2023/12/07 05:29:32;;;;;;;1999.90;999.90;;;0.80;99.90;;;;;;5103558;28;20407;-79
2023/12/07 05:31:57;;;;;;;1999.90;999.90;;;0.80;99.90;;;;;;5087168;28;20044;-79
2023/12/07 05:34:23;;;;;;;1999.90;999.90;;;0.80;99.90;;;;;;5096755;28;20790;-79
2023/12/07 05:36:49;;;;;;;1999.90;999.90;;;0.80;99.90;;;;;;5091320;28;20042;-80
2023/12/07 05:39:14;;;;;;;1999.90;999.90;;;0.80;99.90;;;;;;5087467;28;20518;-80
2023/12/07 05:41:40;;;;;;;1999.90;999.90;;;0.80;99.90;;;;;;5086467;28;20129;-79
2023/12/07 05:44:06;;;;;;;1999.90;999.90;;;0.80;99.90;;;;;;5072136;28;20088;-80
2023/12/07 05:46:32;;;;;;;1999.90;999.90;;;0.90;99.90;;;;;;5065004;28;20079;-79
2023/12/07 05:48:58;;;;;;;1999.90;999.90;;;0.90;99.90;;;;;;5083600;28;20031;-79
2023/12/07 05:51:24;;;;;;;1999.90;999.90;;;0.90;99.90;;;;;;5067780;28;20039;-79
2023/12/07 05:53:50;;;;;;;1999.90;999.90;;;0.90;99.90;;;;;;5087957;28;20092;-79
2023/12/07 05:56:21;;;;;;;1999.90;999.90;;;0.90;99.90;;;;;;5089557;28;20503;-79
2023/12/07 05:58:50;;;;;;;1999.90;999.90;;;0.90;99.90;;;;;;5084566;28;20047;-79
2023/12/07 06:01:18;;;;;;;1999.90;999.90;;;0.90;99.90;;;;;;5105214;28;20044;-79
2023/12/07 06:03:44;;;;;;;1999.90;999.90;;;0.90;99.90;;;;;;5083172;28;20066;-80
2023/12/07 06:06:11;;;;;;;1999.90;999.90;;;1.00;99.90;;;;;;5089003;28;20066;-79
2023/12/07 06:08:37;;;;;;;1999.90;999.90;;;1.00;99.90;;;;;;5080810;28;20046;-80
2023/12/07 06:11:03;;;;;;;1999.90;999.90;;;1.00;99.90;;;;;;5090294;28;20484;-79
2023/12/07 06:13:28;;;;;;;1999.90;999.90;;;1.00;99.90;;;;;;5088956;28;20046;-79
2023/12/07 06:15:54;;;;;;;1999.90;999.90;;;1.10;99.90;;;;;;5084991;28;20040;-79
2023/12/07 06:18:19;;;;;;;1999.90;999.90;;;1.00;99.90;;;;;;5086031;28;20559;-79
2023/12/07 06:20:45;;;;;;;1999.90;999.90;;;1.10;99.90;;;;;;5069833;28;20035;-79
2023/12/07 06:23:12;;;;;;;1999.90;999.90;;;1.10;99.90;;;;;;5067581;28;20054;-79
2023/12/07 06:25:39;;;;;;;1999.90;999.90;;;1.20;99.90;;;;;;5089952;28;20445;-79
2023/12/07 06:28:04;;;;;;;1999.90;999.90;;;1.20;99.90;;;;;;5082640;28;20114;-79
2023/12/07 06:30:30;;;;;;;1999.90;999.90;;;1.20;99.90;;;;;;5105293;28;20123;-79
2023/12/07 06:32:56;;;;;;;1999.90;999.90;;;1.20;99.90;;;;;;5112708;27;20027;-79
2023/12/07 06:35:22;;;;;;;1999.90;999.90;;;1.30;99.90;;;;;;5086980;28;20039;-79
2023/12/07 06:37:47;;;;;;;1999.90;999.90;;;1.30;99.90;;;;;;5082794;28;20079;-79
2023/12/07 06:40:13;;;;;;;1999.90;999.90;;;1.30;99.90;;;;;;5077739;28;20063;-79
2023/12/07 06:42:39;;;;;;;1999.90;999.90;;;1.40;99.90;;;;;;5110207;28;20407;-79
2023/12/07 06:45:10;;;;;;;1999.90;999.90;;;1.40;99.90;;;;;;5089565;28;20115;-79
2023/12/07 06:47:36;;;;;;;1999.90;999.90;;;1.40;99.90;;;;;;5071061;28;20031;-79
2023/12/07 06:50:02;;;;;;;1999.90;999.90;;;1.40;99.90;;;;;;5092206;28;20412;-79
2023/12/07 06:52:28;;;;;;;1999.90;999.90;;;1.40;99.90;;;;;;5086219;28;20406;-79
2023/12/07 06:54:53;;;;;;;1999.90;999.90;;;1.40;99.90;;;;;;5093657;28;20035;-79
2023/12/07 06:57:21;;;;;;;1999.90;999.90;;;1.40;99.90;;;;;;5093419;28;20036;-79
2023/12/07 06:59:47;;;;;;;1999.90;999.90;;;1.40;99.90;;;;;;5068050;28;20040;-79
2023/12/07 07:02:13;;;;;;;1999.90;999.90;;;1.30;99.90;;;;;;5072597;28;20411;-79
2023/12/07 07:04:38;;;;;;;1999.90;999.90;;;1.40;99.90;;;;;;5094566;28;20035;-79
2023/12/07 07:07:04;;;;;;;1999.90;999.90;;;1.30;99.90;;;;;;5076799;28;20039;-79
2023/12/07 07:09:30;;;;;;;1999.90;999.90;;;1.30;99.90;;;;;;5089755;28;20044;-79
2023/12/07 07:11:55;;;;;;;1999.90;999.90;;;1.30;99.90;;;;;;5076753;28;20042;-79
2023/12/07 07:14:21;;;;;;;1999.90;999.90;;;1.30;99.90;;;;;;5073616;28;20136;-79
2023/12/07 07:16:46;;;;;;;1999.90;999.90;;;1.30;99.90;;;;;;5111591;28;20411;-79
2023/12/07 07:19:13;;;;;;;1999.90;999.90;;;1.40;99.90;;;;;;5074547;27;20879;-79
2023/12/07 07:21:39;;;;;;;1999.90;999.90;;;1.30;99.90;;;;;;5087729;28;20070;-79
2023/12/07 07:24:06;;;;;;;1999.90;999.90;;;1.30;99.90;;;;;;5090025;28;20074;-79
2023/12/07 07:26:32;;;;;;;1999.90;999.90;;;1.30;99.90;;;;;;5074095;28;20050;-79
2023/12/07 07:28:57;;;;;;;1999.90;999.90;;;1.30;99.90;;;;;;5087797;28;20407;-79
2023/12/07 07:31:23;;;;;;;1999.90;999.90;;;1.30;99.90;;;;;;5083505;28;20110;-79
2023/12/07 07:33:49;;;;;;;1999.90;999.90;;;1.30;99.90;;;;;;5070950;28;20046;-79
2023/12/07 07:36:15;;;;;;;1999.90;999.90;;;1.30;99.90;;;;;;5072444;28;20492;-79
2023/12/07 07:38:41;;;;;;;1999.90;999.90;;;1.30;99.90;;;;;;5076772;28;20062;-79
2023/12/07 07:41:06;;;;;;;1999.90;999.90;;;1.30;99.90;;;;;;5092045;28;20059;-79
2023/12/07 07:43:34;;;;;;;1999.90;999.90;;;1.30;99.90;;;;;;5081559;28;21020;-79
2023/12/07 07:46:00;;;;;;;1999.90;999.90;;;1.30;99.90;;;;;;5063636;28;20040;-80
2023/12/07 07:48:26;;;;;;;1999.90;999.90;;;1.30;99.90;;;;;;5108445;28;20064;-79
2023/12/07 07:50:51;;;;;;;1999.90;999.90;;;1.30;99.90;;;;;;5089017;27;20066;-79
2023/12/07 07:53:17;;;;;;;1999.90;999.90;;;1.30;99.90;;;;;;5070692;28;20044;-79
2023/12/07 07:55:43;;;;;;;1999.90;999.90;;;1.30;99.90;;;;;;5082913;28;20435;-79
2023/12/07 07:58:08;;;;;;;1999.90;999.90;;;1.30;99.90;;;;;;5063304;28;20040;-79
2023/12/07 08:00:34;;;;;;;1999.90;999.90;;;1.30;99.90;;;;;;5089818;28;20048;-80
2023/12/07 08:03:00;;;;;;;1999.90;999.90;;;1.30;99.90;;;;;;5075764;28;20039;-79
2023/12/07 08:05:25;;;;;;;1999.90;999.90;;;1.40;99.90;;;;;;5106608;28;20117;-79
2023/12/07 08:07:51;;;;;;;1999.90;999.90;;;1.40;99.90;;;;;;5065731;28;20122;-79
2023/12/07 08:10:17;;;;;;;1999.90;999.90;;;1.40;99.90;;;;;;5092142;28;20077;-79
2023/12/07 08:12:42;;;;;;;1999.90;999.90;;;1.40;99.90;;;;;;5074937;28;20040;-79
2023/12/07 08:15:12;;;;;;;1999.90;999.90;;;1.40;99.90;;;;;;5068177;28;20389;-79
2023/12/07 08:17:41;;;;;;;1999.90;999.90;;;1.40;99.90;;;;;;5104972;28;20042;-79
2023/12/07 08:20:10;;;;;;;1999.90;999.90;;;1.40;99.90;;;;;;5090528;28;20644;-79
2023/12/07 08:22:36;;;;;;;1999.90;999.90;;;1.30;99.90;;;;;;5090717;28;20050;-80
2023/12/07 08:25:02;;;;;;;1999.90;999.90;;;1.30;99.90;;;;;;5070676;28;20038;-79
2023/12/07 08:27:28;;;;;;;1999.90;999.90;;;1.30;99.90;;;;;;5067489;28;20043;-79
2023/12/07 08:29:54;;;;;;;1999.90;999.90;;;1.30;99.90;;;;;;5090649;28;20043;-79
2023/12/07 08:32:19;;;;;;;1999.90;999.90;;;1.30;99.90;;;;;;5090052;28;20035;-80
2023/12/07 08:34:46;;;;;;;1999.90;999.90;;;1.40;99.90;;;;;;5089365;28;20138;-79
2023/12/07 08:37:11;;;;;;;1999.90;999.90;;;1.50;99.90;;;;;;5090064;28;20044;-80
2023/12/07 08:39:37;;;;;;;1999.90;999.90;;;1.50;99.90;;;;;;5090177;28;20065;-79
2023/12/07 08:42:03;;;;;;;1999.90;999.90;;;1.50;99.90;;;;;;5091451;28;20056;-79
2023/12/07 08:44:29;;;;;;;1999.90;999.90;;;1.60;99.90;;;;;;5087454;28;20202;-79
2023/12/07 08:46:54;;;;;;;1999.90;999.90;;;1.60;99.90;;;;;;5073420;28;20084;-79
2023/12/07 08:49:20;;;;;;;1999.90;999.90;;;1.60;99.90;;;;;;5086874;28;20035;-79
2023/12/07 08:51:46;;;;;;;1999.90;999.90;;;1.60;99.90;;;;;;5087721;28;20036;-79
2023/12/07 08:54:11;;;;;;;1999.90;999.90;;;1.50;99.90;;;;;;5089060;28;20487;-80
2023/12/07 08:56:37;;;;;;;1999.90;999.90;;;1.50;99.90;;;;;;5073062;28;20035;-80
2023/12/07 08:59:03;;;;;;;1999.90;999.90;;;1.50;99.90;;;;;;5070549;28;20641;-80
2023/12/07 09:01:30;;;;;;;1999.90;999.90;;;1.50;99.90;;;;;;5108492;28;20043;-80
2023/12/07 09:03:55;;;;;;;1999.90;999.90;;;1.60;99.90;;;;;;5072248;28;20118;-80
2023/12/07 09:06:21;;;;;;;1999.90;999.90;;;1.70;99.90;;;;;;5087543;28;20185;-80
2023/12/07 09:08:47;;;;;;;1999.90;999.90;;;1.70;99.90;;;;;;5069057;28;20035;-80
2023/12/07 09:11:12;;;;;;;1999.90;999.90;;;1.70;99.90;;;;;;5076002;28;20055;-80
2023/12/07 09:13:38;;;;;;;1999.90;999.90;;;1.80;99.90;;;;;;5064815;28;20487;-81
2023/12/07 09:16:04;;;;;;;1999.90;999.90;;;1.80;99.90;;;;;;5106314;28;20409;-80
2023/12/07 09:18:30;;;;;;;1999.90;999.90;;;1.90;99.90;;;;;;5099660;28;20050;-80
2023/12/07 09:20:55;;;;;;;1999.90;999.90;;;2.00;99.90;;;;;;5059011;28;20074;-80
2023/12/07 09:23:21;;;;;;;1999.90;999.90;;;2.00;99.90;;;;;;5098167;28;20043;-80
2023/12/07 09:25:47;;;;;;;1999.90;999.90;;;2.10;99.90;;;;;;5071851;28;20106;-80
2023/12/07 09:28:12;;;;;;;1999.90;999.90;;;2.10;99.90;;;;;;5064568;28;20035;-80
2023/12/07 09:30:38;;;;;;;1999.90;999.90;;;2.20;99.90;;;;;;5065552;28;20039;-79
2023/12/07 09:33:04;;;;;;;1999.90;999.90;;;2.30;99.90;;;;;;5086882;28;20415;-79
2023/12/07 09:35:29;;;;;;;1999.90;999.90;;;2.40;99.90;;;;;;5064708;28;20526;-79
2023/12/07 09:37:55;;;;;;;1999.90;999.90;;;2.40;99.90;;;;;;5102510;28;20047;-79
2023/12/07 09:40:22;;;;;;;1999.90;999.90;;;2.50;99.90;;;;;;5066880;28;20055;-80
2023/12/07 09:42:49;;;;;;;1999.90;999.90;;;2.50;99.90;;;;;;5063394;28;20047;-80
2023/12/07 09:45:19;;;;;;;1999.90;999.90;;;2.60;99.90;;;;;;5082283;28;20066;-80
2023/12/07 09:47:50;;;;;;;1999.90;999.90;;;2.60;99.90;;;;;;5084210;28;20633;-80
2023/12/07 09:50:23;;;;;;;1999.90;999.90;;;2.70;99.90;;;;;;5098541;28;20679;-80
2023/12/07 09:52:50;;;;;;;1999.90;999.90;;;2.80;99.90;;;;;;5077509;28;20085;-80
2023/12/07 09:55:19;;;;;;;1999.90;999.90;;;2.90;99.90;;;;;;5064031;28;20040;-80
2023/12/07 09:57:46;;;;;;;1999.90;999.90;;;2.90;99.90;;;;;;5082389;28;20451;-80
2023/12/07 10:00:14;;;;;;;1999.90;999.90;;;3.00;99.90;;;;;;5062806;28;20039;-80
2023/12/07 10:02:43;;;;;;;1999.90;999.90;;;3.10;99.90;;;;;;5085809;28;20063;-80
2023/12/07 10:05:13;;;;;;;1999.90;999.90;;;3.20;99.90;;;;;;5085624;28;20036;-80
2023/12/07 10:07:41;;;;;;;1999.90;999.90;;;3.30;99.90;;;;;;5064326;28;20050;-80
2023/12/07 10:10:07;;;;;;;1999.90;999.90;;;3.40;99.90;;;;;;5083462;28;20043;-80
2023/12/07 10:12:34;;;;;;;1999.90;999.90;;;3.50;99.90;;;;;;5094512;28;20039;-80
2023/12/07 10:15:03;;;;;;;1999.90;999.90;;;3.60;99.90;;;;;;5087843;28;20110;-80
2023/12/07 10:18:07;;;;;;;1999.90;999.90;;;3.70;99.90;;;;;;5100400;28;20035;-80
2023/12/07 10:20:33;;;;;;;1999.90;999.90;;;3.90;99.90;;;;;;5084622;28;20043;-80
2023/12/07 10:23:09;;;;;;;1999.90;999.90;;;4.00;99.90;;;;;;5104558;28;20035;-80
2023/12/07 10:25:42;;;;;;;1999.90;999.90;;;4.20;99.90;;;;;;5085103;28;20396;-80
2023/12/07 10:28:11;;;;;;;1999.90;999.90;;;4.20;99.90;;;;;;5086377;28;20055;-80
2023/12/07 10:30:37;;;;;;;1999.90;999.90;;;4.20;99.90;;;;;;5069963;28;20073;-81
2023/12/07 10:33:04;;;;;;;1999.90;999.90;;;4.30;99.90;;;;;;5069489;28;20543;-80
2023/12/07 10:35:31;;;;;;;1999.90;999.90;;;4.40;99.90;;;;;;5083225;28;20039;-80
2023/12/07 10:37:57;;;;;;;1999.90;999.90;;;4.40;99.90;;;;;;5071206;28;20043;-80
2023/12/07 10:40:23;;;;;;;1999.90;999.90;;;4.40;99.90;;;;;;5069351;28;20064;-80
2023/12/07 10:42:52;;;;;;;1999.90;999.90;;;4.40;99.90;;;;;;5088469;28;20051;-80
2023/12/07 10:45:21;;;;;;;1999.90;999.90;;;4.50;99.90;;;;;;5066033;28;20466;-80
2023/12/07 10:47:48;;;;;;;1999.90;999.90;;;4.60;99.90;;;;;;5069297;28;20035;-80
2023/12/07 10:50:21;;;;;;;1999.90;999.90;;;4.60;99.90;;;;;;5088564;28;20122;-80
2023/12/07 10:52:59;;;;;;;1999.90;999.90;;;4.70;99.90;;;;;;5064846;28;20407;-80
2023/12/07 10:55:29;;;;;;;1999.90;999.90;;;4.80;99.90;;;;;;5079893;28;20043;-80
2023/12/07 10:57:55;;;;;;;1999.90;999.90;;;4.80;99.90;;;;;;5065624;28;20040;-81
2023/12/07 11:00:27;;;;;;;1999.90;999.90;;;4.90;99.90;;;;;;5087391;28;20034;-81
2023/12/07 11:02:53;;;;;;;1999.90;999.90;;;4.90;99.90;;;;;;5065799;28;20039;-81
2023/12/07 11:05:19;;;;;;;1999.90;999.90;;;5.00;99.90;;;;;;5103322;28;20035;-81
2023/12/07 11:07:55;;;;;;;1999.90;999.90;;;5.10;99.90;;;;;;5086163;28;20154;-81
2023/12/07 11:10:39;;;;;;;1999.90;999.90;;;5.20;99.90;;;;;;5085268;28;20115;-81
2023/12/07 11:13:22;;;;;;;1999.90;999.90;;;5.20;99.90;;;;;;5084811;28;20101;-81
2023/12/07 11:15:48;;;;;;;1999.90;999.90;;;5.20;99.90;;;;;;5075916;28;20138;-80
2023/12/07 11:18:14;;;;;;;1999.90;999.90;;;5.20;99.90;;;;;;5076426;28;20147;-80
2023/12/07 11:20:49;;;;;;;1999.90;999.90;;;5.20;99.90;;;;;;5087817;28;20403;-81
2023/12/07 11:23:19;;;;;;;1999.90;999.90;;;5.20;99.90;;;;;;5082249;28;20048;-80
2023/12/07 11:25:46;;;;;;;1999.90;999.90;;;5.20;99.90;;;;;;5073170;28;20039;-81
2023/12/07 11:28:13;;;;;;;1999.90;999.90;;;5.20;99.90;;;;;;5082668;28;20051;-80
2023/12/07 11:30:43;;;;;;;1999.90;999.90;;;5.20;99.90;;;;;;5063572;28;20047;-81
2023/12/07 11:33:09;;;;;;;1999.90;999.90;;;5.20;99.90;;;;;;5073696;27;20567;-81
2023/12/07 11:36:01;;;;;;;1999.90;999.90;;;5.20;99.90;;;;;;5087311;28;20043;-81
2023/12/07 11:38:26;;;;;;;1999.90;999.90;;;5.20;99.90;;;;;;5064402;28;20152;-81
2023/12/07 11:40:55;;;;;;;1999.90;999.90;;;5.20;99.90;;;;;;5082261;28;20166;-81
2023/12/07 11:43:33;;;;;;;1999.90;999.90;;;5.20;99.90;;;;;;5084196;28;20044;-81
2023/12/07 11:45:59;;;;;;;1999.90;999.90;;;5.00;99.90;;;;;;5085814;28;20580;-81
2023/12/07 11:48:25;;;;;;;1999.90;999.90;;;5.00;99.90;;;;;;5080873;28;20135;-81
2023/12/07 11:51:00;;;;;;;1999.90;999.90;;;5.00;99.90;;;;;;5062497;28;20043;-81
2023/12/07 11:53:37;;;;;;;1999.90;999.90;;;4.90;99.90;;;;;;5070598;28;20035;-81
2023/12/07 11:56:08;;;;;;;1999.90;999.90;;;4.80;99.90;;;;;;5061539;28;20068;-81
2023/12/07 11:58:35;;;;;;;1999.90;999.90;;;4.70;99.90;;;;;;5109105;28;20065;-81
2023/12/07 12:01:01;;;;;;;1999.90;999.90;;;4.60;99.90;;;;;;5072212;28;20893;-81
2023/12/07 12:03:29;;;;;;;1999.90;999.90;;;4.30;99.90;;;;;;5085432;28;20115;-81
2023/12/07 12:05:55;;;;;;;1999.90;999.90;;;3.90;99.90;;;;;;5090334;28;20501;-81